sensor_id;sensor_type;location;lat;lon;timestamp;pressure;altitude;pressure_sealevel;temperature;humidity
19736;BME280;32064;49.310;8.646;2023-03-04T00:01:05;101223.31;;;5.37;57.56
19736;BME280;32064;49.310;8.646;2023-03-04T00:03:31;101226.94;;;5.33;58.21
19736;BME280;32064;49.310;8.646;2023-03-04T00:05:56;101228.75;;;5.31;57.17
19736;BME280;32064;49.310;8.646;2023-03-04T00:08:22;101227.16;;;5.27;56.58
19736;BME280;32064;49.310;8.646;2023-03-04T00:10:47;101225.50;;;5.25;56.79
19736;BME280;32064;49.310;8.646;2023-03-04T00:13:13;101229.91;;;5.23;57.45
19736;BME280;32064;49.310;8.646;2023-03-04T00:15:38;101230.03;;;5.20;57.58
19736;BME280;32064;49.310;8.646;2023-03-04T00:18:04;101230.13;;;5.16;57.51
19736;BME280;32064;49.310;8.646;2023-03-04T00:20:29;101230.28;;;5.12;58.45
19736;BME280;32064;49.310;8.646;2023-03-04T00:22:54;101232.22;;;5.07;57.36
19736;BME280;32064;49.310;8.646;2023-03-04T00:25:20;101236.56;;;5.06;57.58
19736;BME280;32064;49.310;8.646;2023-03-04T00:27:45;101228.94;;;5.00;57.90
19736;BME280;32064;49.310;8.646;2023-03-04T00:30:11;101235.97;;;4.98;58.93
19736;BME280;32064;49.310;8.646;2023-03-04T00:32:37;101240.28;;;4.99;59.48
19736;BME280;32064;49.310;8.646;2023-03-04T00:35:03;101236.88;;;4.97;57.83
19736;BME280;32064;49.310;8.646;2023-03-04T00:37:29;101241.28;;;4.95;58.31
19736;BME280;32064;49.310;8.646;2023-03-04T00:39:54;101244.91;;;4.91;58.95
19736;BME280;32064;49.310;8.646;2023-03-04T00:42:19;101240.66;;;4.87;58.48
19736;BME280;32064;49.310;8.646;2023-03-04T00:44:45;101250.25;;;4.86;57.88
19736;BME280;32064;49.310;8.646;2023-03-04T00:47:10;101252.00;;;4.86;57.86
19736;BME280;32064;49.310;8.646;2023-03-04T00:49:36;101244.28;;;4.83;59.55
19736;BME280;32064;49.310;8.646;2023-03-04T00:52:02;101253.03;;;4.82;57.98
19736;BME280;32064;49.310;8.646;2023-03-04T00:54:27;101250.41;;;4.82;58.01
19736;BME280;32064;49.310;8.646;2023-03-04T00:56:53;101249.75;;;4.75;58.58
19736;BME280;32064;49.310;8.646;2023-03-04T00:59:18;101256.81;;;4.71;60.01
19736;BME280;32064;49.310;8.646;2023-03-04T01:01:43;101254.22;;;4.71;59.67
19736;BME280;32064;49.310;8.646;2023-03-04T01:04:09;101251.72;;;4.68;58.79
19736;BME280;32064;49.310;8.646;2023-03-04T01:06:35;101252.66;;;4.66;60.10
19736;BME280;32064;49.310;8.646;2023-03-04T01:09:01;101248.34;;;4.65;59.21
19736;BME280;32064;49.310;8.646;2023-03-04T01:11:26;101249.22;;;4.64;59.30
19736;BME280;32064;49.310;8.646;2023-03-04T01:13:51;101251.09;;;4.60;59.79
19736;BME280;32064;49.310;8.646;2023-03-04T01:16:17;101247.84;;;4.54;59.89
19736;BME280;32064;49.310;8.646;2023-03-04T01:18:42;101251.31;;;4.53;59.78
19736;BME280;32064;49.310;8.646;2023-03-04T01:21:09;101248.81;;;4.49;59.71
19736;BME280;32064;49.310;8.646;2023-03-04T01:23:34;101248.06;;;4.46;60.37
19736;BME280;32064;49.310;8.646;2023-03-04T01:25:59;101244.63;;;4.45;60.41
19736;BME280;32064;49.310;8.646;2023-03-04T01:28:25;101241.19;;;4.43;59.35
19736;BME280;32064;49.310;8.646;2023-03-04T01:30:50;101236.16;;;4.39;60.54
19736;BME280;32064;49.310;8.646;2023-03-04T01:33:16;101234.41;;;4.39;59.75
19736;BME280;32064;49.310;8.646;2023-03-04T01:35:41;101237.94;;;4.37;61.04
19736;BME280;32064;49.310;8.646;2023-03-04T01:38:06;101234.63;;;4.32;61.18
19736;BME280;32064;49.310;8.646;2023-03-04T01:40:32;101229.50;;;4.28;59.83
19736;BME280;32064;49.310;8.646;2023-03-04T01:42:58;101230.31;;;4.31;61.37
19736;BME280;32064;49.310;8.646;2023-03-04T01:45:23;101226.06;;;4.28;60.23
19736;BME280;32064;49.310;8.646;2023-03-04T01:47:50;101239.84;;;4.30;59.62
19736;BME280;32064;49.310;8.646;2023-03-04T01:50:23;101230.41;;;4.27;60.58
19736;BME280;32064;49.310;8.646;2023-03-04T01:52:51;101224.34;;;4.27;60.50
19736;BME280;32064;49.310;8.646;2023-03-04T01:55:20;101219.22;;;4.24;59.97
19736;BME280;32064;49.310;8.646;2023-03-04T01:57:47;101223.66;;;4.22;60.84
19736;BME280;32064;49.310;8.646;2023-03-04T02:00:19;101216.81;;;4.18;60.66
19736;BME280;32064;49.310;8.646;2023-03-04T02:02:50;101215.16;;;4.15;61.67
19736;BME280;32064;49.310;8.646;2023-03-04T02:05:17;101215.22;;;4.14;61.29
19736;BME280;32064;49.310;8.646;2023-03-04T02:07:43;101214.34;;;4.13;60.58
19736;BME280;32064;49.310;8.646;2023-03-04T02:10:10;101205.75;;;4.11;60.74
19736;BME280;32064;49.310;8.646;2023-03-04T02:12:36;101207.50;;;4.11;60.67
19736;BME280;32064;49.310;8.646;2023-03-04T02:15:02;101204.06;;;4.09;60.90
19736;BME280;32064;49.310;8.646;2023-03-04T02:17:27;101205.00;;;4.06;60.89
19736;BME280;32064;49.310;8.646;2023-03-04T02:22:39;101211.25;;;4.00;61.79
19736;BME280;32064;49.310;8.646;2023-03-04T02:25:14;101217.38;;;3.99;61.26
19736;BME280;32064;49.310;8.646;2023-03-04T02:27:43;101209.69;;;3.95;61.76
19736;BME280;32064;49.310;8.646;2023-03-04T02:30:10;101210.59;;;3.94;61.75
19736;BME280;32064;49.310;8.646;2023-03-04T02:32:35;101208.97;;;3.90;62.04
19736;BME280;32064;49.310;8.646;2023-03-04T02:35:01;101204.66;;;3.89;62.09
19736;BME280;32064;49.310;8.646;2023-03-04T02:37:27;101205.59;;;3.86;62.51
19736;BME280;32064;49.310;8.646;2023-03-04T02:39:52;101201.31;;;3.85;62.11
19736;BME280;32064;49.310;8.646;2023-03-04T02:42:18;101206.56;;;3.83;61.66
19736;BME280;32064;49.310;8.646;2023-03-04T02:44:44;101203.03;;;3.85;61.10
19736;BME280;32064;49.310;8.646;2023-03-04T02:47:14;101204.84;;;3.82;61.26
19736;BME280;32064;49.310;8.646;2023-03-04T02:49:42;101204.84;;;3.82;61.56
19736;BME280;32064;49.310;8.646;2023-03-04T02:52:19;101209.34;;;3.77;62.87
19736;BME280;32064;49.310;8.646;2023-03-04T02:54:45;101199.75;;;3.79;62.38
19736;BME280;32064;49.310;8.646;2023-03-04T02:57:11;101196.31;;;3.77;61.68
19736;BME280;32064;49.310;8.646;2023-03-04T02:59:39;101192.06;;;3.75;61.97
19736;BME280;32064;49.310;8.646;2023-03-04T03:02:06;101192.09;;;3.73;62.33
19736;BME280;32064;49.310;8.646;2023-03-04T03:04:32;101199.97;;;3.70;61.79
19736;BME280;32064;49.310;8.646;2023-03-04T03:06:58;101188.72;;;3.70;61.91
19736;BME280;32064;49.310;8.646;2023-03-04T03:09:24;101200.91;;;3.69;62.91
19736;BME280;32064;49.310;8.646;2023-03-04T03:11:49;101198.38;;;3.66;62.24
19736;BME280;32064;49.310;8.646;2023-03-04T03:14:14;101197.47;;;3.67;62.65
19736;BME280;32064;49.310;8.646;2023-03-04T03:16:40;101199.22;;;3.67;62.17
19736;BME280;32064;49.310;8.646;2023-03-04T03:19:05;101198.47;;;3.63;61.88
19736;BME280;32064;49.310;8.646;2023-03-04T03:21:31;101193.38;;;3.58;62.46
19736;BME280;32064;49.310;8.646;2023-03-04T03:23:56;101192.91;;;3.46;63.32
19736;BME280;32064;49.310;8.646;2023-03-04T03:26:22;101191.53;;;3.31;63.36
19736;BME280;32064;49.310;8.646;2023-03-04T03:28:47;101189.00;;;3.29;63.77
19736;BME280;32064;49.310;8.646;2023-03-04T03:31:13;101200.16;;;3.33;63.36
19736;BME280;32064;49.310;8.646;2023-03-04T03:33:38;101186.31;;;3.32;63.18
19736;BME280;32064;49.310;8.646;2023-03-04T03:36:05;101188.16;;;3.29;63.21
19736;BME280;32064;49.310;8.646;2023-03-04T03:38:30;101185.69;;;3.23;63.93
19736;BME280;32064;49.310;8.646;2023-03-04T03:40:56;101187.44;;;3.22;63.74
19736;BME280;32064;49.310;8.646;2023-03-04T03:43:21;101191.78;;;3.23;63.49
19736;BME280;32064;49.310;8.646;2023-03-04T03:45:47;101192.56;;;3.25;64.18
19736;BME280;32064;49.310;8.646;2023-03-04T03:48:12;101203.75;;;3.29;63.94
19736;BME280;32064;49.310;8.646;2023-03-04T03:50:37;101194.13;;;3.32;63.44
19736;BME280;32064;49.310;8.646;2023-03-04T03:53:03;101203.53;;;3.36;63.85
19736;BME280;32064;49.310;8.646;2023-03-04T03:55:28;101202.59;;;3.39;63.25
19736;BME280;32064;49.310;8.646;2023-03-04T03:57:54;101210.56;;;3.33;62.63
19736;BME280;32064;49.310;8.646;2023-03-04T04:00:20;101204.53;;;3.31;63.03
19736;BME280;32064;49.310;8.646;2023-03-04T04:02:45;101207.94;;;3.34;62.89
19736;BME280;32064;49.310;8.646;2023-03-04T04:05:11;101208.78;;;3.35;62.62
19736;BME280;32064;49.310;8.646;2023-03-04T04:07:36;101213.25;;;3.30;63.62
19736;BME280;32064;49.310;8.646;2023-03-04T04:10:04;101219.28;;;3.30;62.62
19736;BME280;32064;49.310;8.646;2023-03-04T04:12:30;101217.59;;;3.29;63.37
19736;BME280;32064;49.310;8.646;2023-03-04T04:14:55;101208.03;;;3.30;63.73
19736;BME280;32064;49.310;8.646;2023-03-04T04:17:21;101211.47;;;3.32;62.72
19736;BME280;32064;49.310;8.646;2023-03-04T04:19:46;101218.28;;;3.36;62.92
19736;BME280;32064;49.310;8.646;2023-03-04T04:22:14;101220.16;;;3.31;63.41
19736;BME280;32064;49.310;8.646;2023-03-04T04:24:39;101212.22;;;3.35;64.05
19736;BME280;32064;49.310;8.646;2023-03-04T04:27:05;101220.69;;;3.44;63.14
19736;BME280;32064;49.310;8.646;2023-03-04T04:29:30;101220.47;;;3.51;63.50
19736;BME280;32064;49.310;8.646;2023-03-04T04:31:56;101210.91;;;3.52;63.00
19736;BME280;32064;49.310;8.646;2023-03-04T04:34:21;101211.09;;;3.46;63.64
19736;BME280;32064;49.310;8.646;2023-03-04T04:36:47;101211.09;;;3.46;64.17
19736;BME280;32064;49.310;8.646;2023-03-04T04:39:12;101211.97;;;3.45;63.78
19736;BME280;32064;49.310;8.646;2023-03-04T04:41:40;101218.97;;;3.43;64.04
19736;BME280;32064;49.310;8.646;2023-03-04T04:44:07;101208.63;;;3.40;64.58
19736;BME280;32064;49.310;8.646;2023-03-04T04:46:32;101216.38;;;3.43;64.97
19736;BME280;32064;49.310;8.646;2023-03-04T04:48:58;101218.91;;;3.46;64.39
19736;BME280;32064;49.310;8.646;2023-03-04T04:51:24;101221.34;;;3.50;64.05
19736;BME280;32064;49.310;8.646;2023-03-04T04:53:49;101219.53;;;3.54;64.38
19736;BME280;32064;49.310;8.646;2023-03-04T04:56:17;101228.13;;;3.56;63.68
19736;BME280;32064;49.310;8.646;2023-03-04T04:58:44;101215.97;;;3.56;63.85
19736;BME280;32064;49.310;8.646;2023-03-04T05:01:11;101215.38;;;3.48;64.17
19736;BME280;32064;49.310;8.646;2023-03-04T05:03:37;101212.81;;;3.45;64.04
19736;BME280;32064;49.310;8.646;2023-03-04T05:06:04;101219.22;;;3.33;64.01
19736;BME280;32064;49.310;8.646;2023-03-04T05:08:31;101215.84;;;3.30;63.88
19736;BME280;32064;49.310;8.646;2023-03-04T05:10:57;101215.88;;;3.28;64.02
19736;BME280;32064;49.310;8.646;2023-03-04T05:13:22;101224.63;;;3.26;64.10
19736;BME280;32064;49.310;8.646;2023-03-04T05:15:51;101219.38;;;3.27;63.86
19736;BME280;32064;49.310;8.646;2023-03-04T05:18:18;101221.06;;;3.28;64.00
19736;BME280;32064;49.310;8.646;2023-03-04T05:20:44;101222.81;;;3.29;63.49
19736;BME280;32064;49.310;8.646;2023-03-04T05:23:10;101220.13;;;3.32;63.81
19736;BME280;32064;49.310;8.646;2023-03-04T05:25:35;101225.50;;;3.25;63.71
19736;BME280;32064;49.310;8.646;2023-03-04T05:28:00;101225.56;;;3.23;63.84
19736;BME280;32064;49.310;8.646;2023-03-04T05:30:26;101224.56;;;3.27;62.84
19736;BME280;32064;49.310;8.646;2023-03-04T05:32:52;101229.69;;;3.30;63.00
19736;BME280;32064;49.310;8.646;2023-03-04T05:35:17;101223.53;;;3.34;63.26
19736;BME280;32064;49.310;8.646;2023-03-04T05:37:43;101226.16;;;3.33;63.82
19736;BME280;32064;49.310;8.646;2023-03-04T05:40:09;101222.66;;;3.34;63.62
19736;BME280;32064;49.310;8.646;2023-03-04T05:42:34;101224.25;;;3.40;63.18
19736;BME280;32064;49.310;8.646;2023-03-04T05:45:00;101224.31;;;3.36;63.60
19736;BME280;32064;49.310;8.646;2023-03-04T05:47:25;101225.97;;;3.41;63.91
19736;BME280;32064;49.310;8.646;2023-03-04T05:49:51;101237.31;;;3.36;63.85
19736;BME280;32064;49.310;8.646;2023-03-04T05:52:16;101230.22;;;3.43;63.31
19736;BME280;32064;49.310;8.646;2023-03-04T05:54:41;101232.66;;;3.49;63.78
19736;BME280;32064;49.310;8.646;2023-03-04T05:57:07;101231.00;;;3.47;63.17
19736;BME280;32064;49.310;8.646;2023-03-04T05:59:32;101229.25;;;3.47;63.66
19736;BME280;32064;49.310;8.646;2023-03-04T06:01:58;101231.00;;;3.47;64.05
19736;BME280;32064;49.310;8.646;2023-03-04T06:04:23;101225.78;;;3.47;64.00
19736;BME280;32064;49.310;8.646;2023-03-04T06:06:48;101225.63;;;3.53;64.14
19736;BME280;32064;49.310;8.646;2023-03-04T06:09:14;101228.97;;;3.58;63.15
19736;BME280;32064;49.310;8.646;2023-03-04T06:11:40;101230.47;;;3.65;64.32
19736;BME280;32064;49.310;8.646;2023-03-04T06:14:05;101234.72;;;3.69;63.71
19736;BME280;32064;49.310;8.646;2023-03-04T06:16:31;101232.84;;;3.74;63.24
19736;BME280;32064;49.310;8.646;2023-03-04T06:18:56;101233.59;;;3.78;63.83
19736;BME280;32064;49.310;8.646;2023-03-04T06:21:21;101240.47;;;3.80;63.82
19736;BME280;32064;49.310;8.646;2023-03-04T06:23:47;101241.31;;;3.81;63.71
19736;BME280;32064;49.310;8.646;2023-03-04T06:26:12;101254.13;;;3.89;63.48
19736;BME280;32064;49.310;8.646;2023-03-04T06:28:43;101252.47;;;3.85;64.14
19736;BME280;32064;49.310;8.646;2023-03-04T06:31:09;101252.38;;;3.88;63.70
19736;BME280;32064;49.310;8.646;2023-03-04T06:33:34;101250.44;;;3.96;64.24
19736;BME280;32064;49.310;8.646;2023-03-04T06:36:00;101258.97;;;4.01;62.92
19736;BME280;32064;49.310;8.646;2023-03-04T06:38:25;101261.38;;;4.07;62.74
19736;BME280;32064;49.310;8.646;2023-03-04T06:40:51;101267.31;;;4.12;62.94
19736;BME280;32064;49.310;8.646;2023-03-04T06:43:17;101268.03;;;4.17;63.29
19736;BME280;32064;49.310;8.646;2023-03-04T06:45:42;101269.81;;;4.15;64.31
19736;BME280;32064;49.310;8.646;2023-03-04T06:48:08;101276.78;;;4.15;63.19
19736;BME280;32064;49.310;8.646;2023-03-04T06:50:33;101276.97;;;4.09;64.06
19736;BME280;32064;49.310;8.646;2023-03-04T06:52:58;101268.31;;;4.08;64.24
19736;BME280;32064;49.310;8.646;2023-03-04T06:55:24;101273.44;;;4.11;64.81
19736;BME280;32064;49.310;8.646;2023-03-04T06:57:49;101279.38;;;4.16;63.82
19736;BME280;32064;49.310;8.646;2023-03-04T07:00:15;101273.38;;;4.13;64.58
19736;BME280;32064;49.310;8.646;2023-03-04T07:02:41;101270.56;;;4.19;64.98
19736;BME280;32064;49.310;8.646;2023-03-04T07:05:09;101276.31;;;4.30;64.67
19736;BME280;32064;49.310;8.646;2023-03-04T07:07:34;101275.13;;;4.42;64.36
19736;BME280;32064;49.310;8.646;2023-03-04T07:10:00;101283.88;;;4.39;63.40
19736;BME280;32064;49.310;8.646;2023-03-04T07:12:25;101281.94;;;4.46;64.12
19736;BME280;32064;49.310;8.646;2023-03-04T07:14:51;101281.41;;;4.35;65.41
19736;BME280;32064;49.310;8.646;2023-03-04T07:17:16;101285.53;;;4.42;64.24
19736;BME280;32064;49.310;8.646;2023-03-04T07:19:41;101287.69;;;4.56;64.34
19736;BME280;32064;49.310;8.646;2023-03-04T07:22:07;101288.22;;;4.67;63.81
19736;BME280;32064;49.310;8.646;2023-03-04T07:24:32;101295.00;;;4.72;64.01
19736;BME280;32064;49.310;8.646;2023-03-04T07:26:58;101301.84;;;4.77;63.42
19736;BME280;32064;49.310;8.646;2023-03-04T07:29:23;101297.53;;;4.76;63.05
19736;BME280;32064;49.310;8.646;2023-03-04T07:31:49;101302.59;;;4.80;62.89
19736;BME280;32064;49.310;8.646;2023-03-04T07:34:14;101300.78;;;4.82;64.20
19736;BME280;32064;49.310;8.646;2023-03-04T07:36:40;101306.66;;;4.89;64.38
19736;BME280;32064;49.310;8.646;2023-03-04T07:39:06;101306.53;;;4.93;63.01
19736;BME280;32064;49.310;8.646;2023-03-04T07:41:32;101306.28;;;5.01;62.31
19736;BME280;32064;49.310;8.646;2023-03-04T07:44:01;101312.34;;;5.02;62.74
19736;BME280;32064;49.310;8.646;2023-03-04T07:46:26;101311.28;;;5.07;62.20
19736;BME280;32064;49.310;8.646;2023-03-04T07:48:54;101301.84;;;5.03;63.20
19736;BME280;32064;49.310;8.646;2023-03-04T07:51:22;101315.84;;;5.01;63.58
19736;BME280;32064;49.310;8.646;2023-03-04T07:53:49;101313.84;;;5.09;63.31
19736;BME280;32064;49.310;8.646;2023-03-04T07:56:18;101307.78;;;5.08;64.67
19736;BME280;32064;49.310;8.646;2023-03-04T07:58:44;101316.78;;;4.98;63.11
19736;BME280;32064;49.310;8.646;2023-03-04T08:01:15;101313.13;;;5.04;62.96
19736;BME280;32064;49.310;8.646;2023-03-04T08:03:41;101325.13;;;5.09;64.50
19736;BME280;32064;49.310;8.646;2023-03-04T08:06:09;101323.22;;;5.14;63.85
19736;BME280;32064;49.310;8.646;2023-03-04T08:08:35;101324.94;;;5.15;63.03
19736;BME280;32064;49.310;8.646;2023-03-04T08:11:06;101321.38;;;5.18;65.22
19736;BME280;32064;49.310;8.646;2023-03-04T08:13:32;101325.53;;;5.24;63.88
19736;BME280;32064;49.310;8.646;2023-03-04T08:15:58;101322.16;;;5.20;64.17
19736;BME280;32064;49.310;8.646;2023-03-04T08:18:23;101328.09;;;5.25;64.64
19736;BME280;32064;49.310;8.646;2023-03-04T08:20:49;101319.25;;;5.29;64.61
19736;BME280;32064;49.310;8.646;2023-03-04T08:23:14;101324.28;;;5.35;63.40
19736;BME280;32064;49.310;8.646;2023-03-04T08:25:40;101320.66;;;5.39;64.01
19736;BME280;32064;49.310;8.646;2023-03-04T08:28:08;101320.78;;;5.35;64.29
19736;BME280;32064;49.310;8.646;2023-03-04T08:30:34;101317.72;;;5.49;62.93
19736;BME280;32064;49.310;8.646;2023-03-04T08:33:01;101323.91;;;5.46;64.98
19736;BME280;32064;49.310;8.646;2023-03-04T08:35:27;101322.53;;;5.61;64.20
19736;BME280;32064;49.310;8.646;2023-03-04T08:37:52;101320.72;;;5.63;62.90
19736;BME280;32064;49.310;8.646;2023-03-04T08:40:18;101321.06;;;5.77;63.26
19736;BME280;32064;49.310;8.646;2023-03-04T08:42:43;101320.13;;;5.80;63.74
19736;BME280;32064;49.310;8.646;2023-03-04T08:45:09;101322.09;;;5.73;64.47
19736;BME280;32064;49.310;8.646;2023-03-04T08:47:35;101313.56;;;5.68;63.17
19736;BME280;32064;49.310;8.646;2023-03-04T08:50:01;101313.56;;;5.68;64.14
19736;BME280;32064;49.310;8.646;2023-03-04T08:52:28;101318.53;;;5.76;64.21
19736;BME280;32064;49.310;8.646;2023-03-04T08:54:54;101320.41;;;5.72;65.15
19736;BME280;32064;49.310;8.646;2023-03-04T08:57:20;101322.25;;;5.69;64.35
19736;BME280;32064;49.310;8.646;2023-03-04T08:59:45;101324.81;;;5.70;64.22
19736;BME280;32064;49.310;8.646;2023-03-04T09:02:10;101323.75;;;5.76;64.68
19736;BME280;32064;49.310;8.646;2023-03-04T09:04:36;101319.16;;;5.82;64.33
19736;BME280;32064;49.310;8.646;2023-03-04T09:07:01;101322.53;;;5.86;63.05
19736;BME280;32064;49.310;8.646;2023-03-04T09:09:27;101326.88;;;5.85;64.69
19736;BME280;32064;49.310;8.646;2023-03-04T09:11:52;101319.13;;;5.84;65.07
19736;BME280;32064;49.310;8.646;2023-03-04T09:14:18;101322.31;;;5.92;64.16
19736;BME280;32064;49.310;8.646;2023-03-04T09:16:43;101320.78;;;5.87;64.48
19736;BME280;32064;49.310;8.646;2023-03-04T09:19:09;101317.97;;;5.91;65.02
19736;BME280;32064;49.310;8.646;2023-03-04T09:21:34;101320.44;;;5.97;64.52
19736;BME280;32064;49.310;8.646;2023-03-04T09:24:00;101316.66;;;6.04;63.37
19736;BME280;32064;49.310;8.646;2023-03-04T09:26:27;101317.28;;;6.11;63.68
19736;BME280;32064;49.310;8.646;2023-03-04T09:28:56;101322.47;;;6.13;64.88
19736;BME280;32064;49.310;8.646;2023-03-04T09:31:22;101319.78;;;6.14;64.80
19736;BME280;32064;49.310;8.646;2023-03-04T09:33:48;101318.91;;;6.15;64.33
19736;BME280;32064;49.310;8.646;2023-03-04T09:36:14;101326.63;;;6.18;64.10
19736;BME280;32064;49.310;8.646;2023-03-04T09:38:40;101322.41;;;6.14;63.03
19736;BME280;32064;49.310;8.646;2023-03-04T09:41:08;101327.59;;;6.16;64.51
19736;BME280;32064;49.310;8.646;2023-03-04T09:43:37;101330.81;;;6.22;63.39
19736;BME280;32064;49.310;8.646;2023-03-04T09:46:15;101329.63;;;6.31;64.38
19736;BME280;32064;49.310;8.646;2023-03-04T09:48:48;101329.72;;;6.28;64.04
19736;BME280;32064;49.310;8.646;2023-03-04T09:51:34;101321.97;;;6.26;63.36
19736;BME280;32064;49.310;8.646;2023-03-04T09:57:29;101328.00;;;6.28;62.75
19736;BME280;32064;49.310;8.646;2023-03-04T10:00:23;101331.94;;;6.39;63.63
19736;BME280;32064;49.310;8.646;2023-03-04T10:03:19;101335.28;;;6.42;64.51
19736;BME280;32064;49.310;8.646;2023-03-04T10:06:06;101338.22;;;6.57;63.34
19736;BME280;32064;49.310;8.646;2023-03-04T10:11:19;101334.59;;;6.61;63.73
19736;BME280;32064;49.310;8.646;2023-03-04T10:17:04;101342.50;;;6.59;63.78
19736;BME280;32064;49.310;8.646;2023-03-04T10:22:46;101333.44;;;6.68;63.72
19736;BME280;32064;49.310;8.646;2023-03-04T10:25:17;101332.59;;;6.67;63.21
19736;BME280;32064;49.310;8.646;2023-03-04T10:27:48;101333.34;;;6.71;64.03
19736;BME280;32064;49.310;8.646;2023-03-04T10:30:22;101338.66;;;6.68;63.68
19736;BME280;32064;49.310;8.646;2023-03-04T10:32:52;101334.56;;;6.84;63.40
19736;BME280;32064;49.310;8.646;2023-03-04T10:35:19;101334.31;;;6.90;62.18
19736;BME280;32064;49.310;8.646;2023-03-04T10:37:49;101328.91;;;6.95;63.17
19736;BME280;32064;49.310;8.646;2023-03-04T10:40:24;101328.94;;;6.93;62.09
19736;BME280;32064;49.310;8.646;2023-03-04T10:42:51;101332.31;;;6.97;61.74
19736;BME280;32064;49.310;8.646;2023-03-04T10:45:22;101331.47;;;6.96;62.29
19736;BME280;32064;49.310;8.646;2023-03-04T10:47:55;101324.47;;;6.97;62.59
19736;BME280;32064;49.310;8.646;2023-03-04T10:50:26;101328.34;;;7.09;62.39
19736;BME280;32064;49.310;8.646;2023-03-04T10:52:53;101322.28;;;7.08;62.80
19736;BME280;32064;49.310;8.646;2023-03-04T10:55:41;101311.31;;;7.20;61.58
19736;BME280;32064;49.310;8.646;2023-03-04T10:58:12;101318.97;;;7.25;62.35
19736;BME280;32064;49.310;8.646;2023-03-04T11:00:39;101319.69;;;7.29;62.39
19736;BME280;32064;49.310;8.646;2023-03-04T11:03:29;101307.97;;;7.37;62.30
19736;BME280;32064;49.310;8.646;2023-03-04T11:08:29;101310.41;;;7.42;61.51
19736;BME280;32064;49.310;8.646;2023-03-04T11:10:55;101302.44;;;7.45;62.37
19736;BME280;32064;49.310;8.646;2023-03-04T11:13:22;101299.94;;;7.42;61.78
19736;BME280;32064;49.310;8.646;2023-03-04T11:18:22;101293.84;;;7.62;60.91
19736;BME280;32064;49.310;8.646;2023-03-04T11:20:52;101290.38;;;7.61;61.31
19736;BME280;32064;49.310;8.646;2023-03-04T11:23:31;101280.50;;;7.68;61.00
19736;BME280;32064;49.310;8.646;2023-03-04T11:26:04;101280.34;;;7.71;61.50
19736;BME280;32064;49.310;8.646;2023-03-04T11:31:38;101274.69;;;7.80;60.29
19736;BME280;32064;49.310;8.646;2023-03-04T11:36:58;101274.22;;;7.91;60.20
19736;BME280;32064;49.310;8.646;2023-03-04T11:39:37;101267.31;;;7.90;60.17
19736;BME280;32064;49.310;8.646;2023-03-04T11:45:15;101270.00;;;8.07;59.85
19736;BME280;32064;49.310;8.646;2023-03-04T11:47:49;101271.63;;;8.10;59.66
19736;BME280;32064;49.310;8.646;2023-03-04T11:58:34;101269.56;;;8.17;59.76
19736;BME280;32064;49.310;8.646;2023-03-04T12:01:23;101259.50;;;8.26;58.47
19736;BME280;32064;49.310;8.646;2023-03-04T12:06:34;101253.84;;;8.17;57.98
19736;BME280;32064;49.310;8.646;2023-03-04T12:09:13;101252.84;;;8.19;58.47
19736;BME280;32064;49.310;8.646;2023-03-04T12:14:43;101245.78;;;8.21;58.45
19736;BME280;32064;49.310;8.646;2023-03-04T12:19:57;101235.84;;;8.09;58.09
19736;BME280;32064;49.310;8.646;2023-03-04T12:26:02;101237.69;;;8.26;57.72
19736;BME280;32064;49.310;8.646;2023-03-04T12:34:25;101221.81;;;8.29;57.77
19736;BME280;32064;49.310;8.646;2023-03-04T12:37:00;101226.06;;;8.31;57.84
19736;BME280;32064;49.310;8.646;2023-03-04T12:39:55;101221.47;;;8.37;57.85
19736;BME280;32064;49.310;8.646;2023-03-04T12:42:41;101218.19;;;8.31;58.05
19736;BME280;32064;49.310;8.646;2023-03-04T12:45:24;101207.88;;;8.28;57.94
19736;BME280;32064;49.310;8.646;2023-03-04T12:56:01;101197.03;;;8.36;57.62
19736;BME280;32064;49.310;8.646;2023-03-04T12:58:30;101192.50;;;8.40;57.61
19736;BME280;32064;49.310;8.646;2023-03-04T13:01:08;101196.59;;;8.45;57.56
19736;BME280;32064;49.310;8.646;2023-03-04T13:06:48;101195.66;;;8.46;57.22
19736;BME280;32064;49.310;8.646;2023-03-04T13:09:29;101198.91;;;8.51;57.22
19736;BME280;32064;49.310;8.646;2023-03-04T13:22:46;101187.38;;;8.56;56.92
19736;BME280;32064;49.310;8.646;2023-03-04T13:28:13;101186.06;;;8.64;56.89
19736;BME280;32064;49.310;8.646;2023-03-04T13:43:50;101173.34;;;8.38;56.97
19736;BME280;32064;49.310;8.646;2023-03-04T13:51:26;101171.53;;;8.40;57.32
19736;BME280;32064;49.310;8.646;2023-03-04T14:01:39;101156.44;;;8.45;56.69
19736;BME280;32064;49.310;8.646;2023-03-04T14:06:57;101160.88;;;8.43;56.96
19736;BME280;32064;49.310;8.646;2023-03-04T14:09:26;101153.50;;;8.32;56.92
19736;BME280;32064;49.310;8.646;2023-03-04T14:11:54;101157.84;;;8.33;57.12
19736;BME280;32064;49.310;8.646;2023-03-04T14:14:27;101154.28;;;8.34;56.90
19736;BME280;32064;49.310;8.646;2023-03-04T14:17:02;101147.94;;;8.40;57.36
19736;BME280;32064;49.310;8.646;2023-03-04T14:19:36;101143.63;;;8.39;56.90
19736;BME280;32064;49.310;8.646;2023-03-04T14:22:22;101140.34;;;8.33;57.66
19736;BME280;32064;49.310;8.646;2023-03-04T14:25:20;101137.38;;;8.41;56.92
19736;BME280;32064;49.310;8.646;2023-03-04T14:27:44;101141.78;;;8.41;56.91
19736;BME280;32064;49.310;8.646;2023-03-04T14:30:24;101140.13;;;8.38;56.95
19736;BME280;32064;49.310;8.646;2023-03-04T14:32:55;101140.84;;;8.42;57.28
19736;BME280;32064;49.310;8.646;2023-03-04T14:35:28;101140.19;;;8.37;57.03
19736;BME280;32064;49.310;8.646;2023-03-04T14:37:59;101142.03;;;8.35;56.99
19736;BME280;32064;49.310;8.646;2023-03-04T14:40:28;101136.09;;;8.31;57.17
19736;BME280;32064;49.310;8.646;2023-03-04T14:43:18;101135.41;;;8.27;57.26
19736;BME280;32064;49.310;8.646;2023-03-04T14:45:46;101134.88;;;8.38;56.88
19736;BME280;32064;49.310;8.646;2023-03-04T14:48:30;101128.88;;;8.36;57.06
19736;BME280;32064;49.310;8.646;2023-03-04T14:50:58;101130.63;;;8.36;57.08
19736;BME280;32064;49.310;8.646;2023-03-04T14:53:26;101118.38;;;8.36;57.17